sensor_id;sensor_type;location;lat;lon;timestamp;pressure;altitude;pressure_sealevel;temperature;humidity
7157;BME280;3620;49.862;8.758;2022-11-13T00:01:16;100386.09;;;9.27;100.00
7157;BME280;3620;49.862;8.758;2022-11-13T00:03:45;100386.19;;;9.24;100.00
7157;BME280;3620;49.862;8.758;2022-11-13T00:06:13;100380.84;;;9.27;100.00
7157;BME280;3620;49.862;8.758;2022-11-13T00:08:40;100379.81;;;9.34;100.00
7157;BME280;3620;49.862;8.758;2022-11-13T00:11:11;100375.38;;;9.37;100.00
7157;BME280;3620;49.862;8.758;2022-11-13T00:13:40;100368.41;;;9.35;100.00
7157;BME280;3620;49.862;8.758;2022-11-13T00:16:11;100374.53;;;9.35;100.00
7157;BME280;3620;49.862;8.758;2022-11-13T00:18:38;100374.75;;;9.26;100.00
7157;BME280;3620;49.862;8.758;2022-11-13T00:21:06;100373.09;;;9.21;100.00
7157;BME280;3620;49.862;8.758;2022-11-13T00:23:33;100364.41;;;9.19;100.00
7157;BME280;3620;49.862;8.758;2022-11-13T00:26:09;100372.22;;;9.22;100.00
7157;BME280;3620;49.862;8.758;2022-11-13T00:28:37;100367.66;;;9.30;100.00
7157;BME280;3620;49.862;8.758;2022-11-13T00:31:05;100368.41;;;9.35;100.00
7157;BME280;3620;49.862;8.758;2022-11-13T00:33:32;100366.56;;;9.40;100.00
7157;BME280;3620;49.862;8.758;2022-11-13T00:36:04;100369.28;;;9.35;100.00
7157;BME280;3620;49.862;8.758;2022-11-13T00:38:31;100372.03;;;9.31;100.00
7157;BME280;3620;49.862;8.758;2022-11-13T00:40:57;100358.03;;;9.29;100.00
7157;BME280;3620;49.862;8.758;2022-11-13T00:43:26;100349.41;;;9.24;100.00
7157;BME280;3620;49.862;8.758;2022-11-13T00:45:53;100354.97;;;9.10;100.00
7157;BME280;3620;49.862;8.758;2022-11-13T00:48:20;100350.69;;;9.06;100.00
7157;BME280;3620;49.862;8.758;2022-11-13T00:50:47;100344.66;;;9.01;100.00
7157;BME280;3620;49.862;8.758;2022-11-13T00:53:14;100346.34;;;9.04;100.00
7157;BME280;3620;49.862;8.758;2022-11-13T00:55:42;100343.78;;;9.02;100.00
7157;BME280;3620;49.862;8.758;2022-11-13T00:58:09;100339.44;;;9.00;100.00
7157;BME280;3620;49.862;8.758;2022-11-13T01:00:37;100343.78;;;9.02;100.00
7157;BME280;3620;49.862;8.758;2022-11-13T01:03:03;100343.19;;;8.88;100.00
7157;BME280;3620;49.862;8.758;2022-11-13T01:05:34;100348.34;;;8.93;100.00
7157;BME280;3620;49.862;8.758;2022-11-13T01:08:01;100336.38;;;8.79;100.00
7157;BME280;3620;49.862;8.758;2022-11-13T01:10:28;100340.81;;;8.76;100.00
7157;BME280;3620;49.862;8.758;2022-11-13T01:12:54;100340.03;;;8.72;100.00
7157;BME280;3620;49.862;8.758;2022-11-13T01:15:21;100336.47;;;8.73;100.00
7157;BME280;3620;49.862;8.758;2022-11-13T01:17:49;100338.09;;;8.80;100.00
7157;BME280;3620;49.862;8.758;2022-11-13T01:20:16;100331.19;;;8.76;100.00
7157;BME280;3620;49.862;8.758;2022-11-13T01:22:43;100332.00;;;8.78;100.00
7157;BME280;3620;49.862;8.758;2022-11-13T01:25:09;100324.41;;;8.66;100.00
7157;BME280;3620;49.862;8.758;2022-11-13T01:27:36;100322.66;;;8.65;100.00
7157;BME280;3620;49.862;8.758;2022-11-13T01:30:04;100331.50;;;8.61;100.00
7157;BME280;3620;49.862;8.758;2022-11-13T01:32:31;100327.03;;;8.65;100.00
7157;BME280;3620;49.862;8.758;2022-11-13T01:34:59;100329.66;;;8.66;100.00
7157;BME280;3620;49.862;8.758;2022-11-13T01:37:25;100326.25;;;8.61;100.00
7157;BME280;3620;49.862;8.758;2022-11-13T01:39:52;100333.03;;;8.71;100.00
7157;BME280;3620;49.862;8.758;2022-11-13T01:42:18;100326.91;;;8.72;100.00
7157;BME280;3620;49.862;8.758;2022-11-13T01:44:50;100331.31;;;8.70;100.00
7157;BME280;3620;49.862;8.758;2022-11-13T01:47:18;100332.25;;;8.68;100.00
7157;BME280;3620;49.862;8.758;2022-11-13T01:49:48;100323.47;;;8.69;100.00
7157;BME280;3620;49.862;8.758;2022-11-13T01:52:20;100332.28;;;8.65;100.00
7157;BME280;3620;49.862;8.758;2022-11-13T01:54:50;100329.53;;;8.72;100.00
7157;BME280;3620;49.862;8.758;2022-11-13T01:57:18;100328.66;;;8.72;100.00
7157;BME280;3620;49.862;8.758;2022-11-13T01:59:49;100334.44;;;8.88;100.00
7157;BME280;3620;49.862;8.758;2022-11-13T02:02:16;100328.88;;;9.03;100.00
7157;BME280;3620;49.862;8.758;2022-11-13T02:04:43;100329.00;;;8.97;100.00
7157;BME280;3620;49.862;8.758;2022-11-13T02:07:12;100328.09;;;8.99;100.00
7157;BME280;3620;49.862;8.758;2022-11-13T02:09:42;100320.13;;;9.04;100.00
7157;BME280;3620;49.862;8.758;2022-11-13T02:12:11;100318.50;;;8.97;100.00
7157;BME280;3620;49.862;8.758;2022-11-13T02:14:40;100325.38;;;9.04;100.00
7157;BME280;3620;49.862;8.758;2022-11-13T02:17:10;100316.56;;;9.05;100.00
7157;BME280;3620;49.862;8.758;2022-11-13T02:19:42;100311.41;;;9.02;100.00
7157;BME280;3620;49.862;8.758;2022-11-13T02:22:14;100305.50;;;8.92;100.00
7157;BME280;3620;49.862;8.758;2022-11-13T02:24:46;100303.75;;;8.93;100.00
7157;BME280;3620;49.862;8.758;2022-11-13T02:27:17;100305.78;;;8.78;100.00
7157;BME280;3620;49.862;8.758;2022-11-13T02:29:45;100301.31;;;8.83;100.00
7157;BME280;3620;49.862;8.758;2022-11-13T02:32:12;100297.72;;;8.88;100.00
7157;BME280;3620;49.862;8.758;2022-11-13T02:34:39;100294.25;;;8.85;100.00
7157;BME280;3620;49.862;8.758;2022-11-13T02:37:05;100290.81;;;8.83;100.00
7157;BME280;3620;49.862;8.758;2022-11-13T02:39:32;100296.94;;;8.84;100.00
7157;BME280;3620;49.862;8.758;2022-11-13T02:42:00;100298.84;;;8.76;100.00
7157;BME280;3620;49.862;8.758;2022-11-13T02:44:26;100297.13;;;8.75;100.00
7157;BME280;3620;49.862;8.758;2022-11-13T02:46:53;100292.69;;;8.77;100.00
7157;BME280;3620;49.862;8.758;2022-11-13T02:49:19;100283.19;;;8.73;100.00
7157;BME280;3620;49.862;8.758;2022-11-13T02:51:46;100289.25;;;8.75;100.00
7157;BME280;3620;49.862;8.758;2022-11-13T02:54:12;100288.28;;;8.79;100.00
7157;BME280;3620;49.862;8.758;2022-11-13T02:56:39;100288.44;;;8.73;100.00
7157;BME280;3620;49.862;8.758;2022-11-13T02:59:09;100289.34;;;8.70;100.00
7157;BME280;3620;49.862;8.758;2022-11-13T03:01:35;100288.38;;;8.74;100.00
7157;BME280;3620;49.862;8.758;2022-11-13T03:04:02;100274.47;;;8.71;100.00
7157;BME280;3620;49.862;8.758;2022-11-13T03:06:28;100278.28;;;8.56;100.00
7157;BME280;3620;49.862;8.758;2022-11-13T03:08:55;100271.13;;;8.63;100.00
7157;BME280;3620;49.862;8.758;2022-11-13T03:11:22;100265.00;;;8.62;100.00
7157;BME280;3620;49.862;8.758;2022-11-13T03:13:48;100272.94;;;8.61;100.00
7157;BME280;3620;49.862;8.758;2022-11-13T03:16:16;100268.69;;;8.55;100.00
7157;BME280;3620;49.862;8.758;2022-11-13T03:18:42;100275.78;;;8.50;100.00
7157;BME280;3620;49.862;8.758;2022-11-13T03:21:11;100265.53;;;8.38;100.00
7157;BME280;3620;49.862;8.758;2022-11-13T03:23:39;100262.16;;;8.33;100.00
7157;BME280;3620;49.862;8.758;2022-11-13T03:26:08;100268.28;;;8.32;100.00
7157;BME280;3620;49.862;8.758;2022-11-13T03:28:35;100267.25;;;8.39;100.00
7157;BME280;3620;49.862;8.758;2022-11-13T03:31:03;100262.19;;;8.30;100.00
7157;BME280;3620;49.862;8.758;2022-11-13T03:33:31;100262.25;;;8.27;100.00
7157;BME280;3620;49.862;8.758;2022-11-13T03:35:58;100261.44;;;8.24;100.00
7157;BME280;3620;49.862;8.758;2022-11-13T03:38:25;100267.72;;;8.15;100.00
7157;BME280;3620;49.862;8.758;2022-11-13T03:40:51;100267.88;;;8.06;100.00
7157;BME280;3620;49.862;8.758;2022-11-13T03:43:18;100266.97;;;8.08;100.00
7157;BME280;3620;49.862;8.758;2022-11-13T03:45:45;100260.91;;;8.05;100.00
7157;BME280;3620;49.862;8.758;2022-11-13T03:48:12;100268.75;;;8.05;100.00
7157;BME280;3620;49.862;8.758;2022-11-13T03:50:41;100261.72;;;8.08;100.00
7157;BME280;3620;49.862;8.758;2022-11-13T03:53:08;100260.91;;;8.05;100.00
7157;BME280;3620;49.862;8.758;2022-11-13T03:55:35;100266.09;;;8.08;100.00
7157;BME280;3620;49.862;8.758;2022-11-13T03:58:02;100262.69;;;8.03;100.00
7157;BME280;3620;49.862;8.758;2022-11-13T04:00:28;100260.13;;;8.00;100.00
7157;BME280;3620;49.862;8.758;2022-11-13T04:02:55;100265.34;;;8.00;100.00
7157;BME280;3620;49.862;8.758;2022-11-13T04:05:22;100260.13;;;8.00;100.00
7157;BME280;3620;49.862;8.758;2022-11-13T04:07:49;100259.56;;;7.83;100.00
7157;BME280;3620;49.862;8.758;2022-11-13T04:10:16;100262.34;;;7.22;100.00
7157;BME280;3620;49.862;8.758;2022-11-13T04:12:43;100255.44;;;7.16;100.00
7157;BME280;3620;49.862;8.758;2022-11-13T04:15:10;100261.78;;;7.00;100.00
7157;BME280;3620;49.862;8.758;2022-11-13T04:17:36;100255.94;;;6.83;100.00
7157;BME280;3620;49.862;8.758;2022-11-13T04:20:04;100248.41;;;6.62;100.00
7157;BME280;3620;49.862;8.758;2022-11-13T04:22:30;100257.19;;;6.55;100.00
7157;BME280;3620;49.862;8.758;2022-11-13T04:24:58;100240.63;;;6.56;100.00
7157;BME280;3620;49.862;8.758;2022-11-13T04:27:25;100242.34;;;6.57;100.00
7157;BME280;3620;49.862;8.758;2022-11-13T04:29:51;100244.03;;;6.61;100.00
7157;BME280;3620;49.862;8.758;2022-11-13T04:32:18;100227.34;;;6.73;100.00
7157;BME280;3620;49.862;8.758;2022-11-13T04:34:44;100228.56;;;6.46;100.00
7157;BME280;3620;49.862;8.758;2022-11-13T04:37:11;100228.91;;;6.16;100.00
7157;BME280;3620;49.862;8.758;2022-11-13T04:39:38;100222.75;;;6.23;100.00
7157;BME280;3620;49.862;8.758;2022-11-13T04:42:06;100227.09;;;6.22;100.00
7157;BME280;3620;49.862;8.758;2022-11-13T04:44:49;100222.06;;;6.09;100.00
7157;BME280;3620;49.862;8.758;2022-11-13T04:47:16;100215.81;;;6.22;100.00
7157;BME280;3620;49.862;8.758;2022-11-13T04:49:43;100209.84;;;6.11;100.00
7157;BME280;3620;49.862;8.758;2022-11-13T04:52:09;100220.44;;;5.96;100.00
7157;BME280;3620;49.862;8.758;2022-11-13T04:54:36;100211.75;;;5.97;100.00
7157;BME280;3620;49.862;8.758;2022-11-13T04:57:02;100209.78;;;6.14;100.00
7157;BME280;3620;49.862;8.758;2022-11-13T04:59:30;100212.38;;;6.17;100.00
7157;BME280;3620;49.862;8.758;2022-11-13T05:01:57;100211.28;;;6.34;100.00
7157;BME280;3620;49.862;8.758;2022-11-13T05:04:24;100205.91;;;6.45;100.00
7157;BME280;3620;49.862;8.758;2022-11-13T05:06:50;100206.06;;;6.34;100.00
7157;BME280;3620;49.862;8.758;2022-11-13T05:09:17;100204.13;;;6.47;100.00
7157;BME280;3620;49.862;8.758;2022-11-13T05:11:43;100201.84;;;6.23;100.00
7157;BME280;3620;49.862;8.758;2022-11-13T05:14:10;100203.44;;;6.37;100.00
7157;BME280;3620;49.862;8.758;2022-11-13T05:16:38;100192.25;;;6.25;100.00
7157;BME280;3620;49.862;8.758;2022-11-13T05:19:05;100185.44;;;6.12;100.00
7157;BME280;3620;49.862;8.758;2022-11-13T05:21:33;100183.72;;;6.11;100.00
7157;BME280;3620;49.862;8.758;2022-11-13T05:23:59;100178.38;;;6.21;100.00
7157;BME280;3620;49.862;8.758;2022-11-13T05:26:26;100178.13;;;6.38;100.00
7157;BME280;3620;49.862;8.758;2022-11-13T05:28:55;100179.06;;;6.34;100.00
7157;BME280;3620;49.862;8.758;2022-11-13T05:31:21;100175.84;;;6.14;100.00
7157;BME280;3620;49.862;8.758;2022-11-13T05:33:49;100177.16;;;6.45;100.00
7157;BME280;3620;49.862;8.758;2022-11-13T05:36:17;100174.66;;;6.39;100.00
7157;BME280;3620;49.862;8.758;2022-11-13T05:38:44;100177.44;;;6.25;100.00
7157;BME280;3620;49.862;8.758;2022-11-13T05:41:14;100167.94;;;6.20;100.00
7157;BME280;3620;49.862;8.758;2022-11-13T05:43:41;100171.09;;;6.43;100.00
7157;BME280;3620;49.862;8.758;2022-11-13T05:46:10;100178.00;;;6.47;100.00
7157;BME280;3620;49.862;8.758;2022-11-13T05:48:40;100175.66;;;6.29;100.00
7157;BME280;3620;49.862;8.758;2022-11-13T05:51:10;100165.72;;;6.55;100.00
7157;BME280;3620;49.862;8.758;2022-11-13T05:53:37;100170.19;;;6.45;100.00
7157;BME280;3620;49.862;8.758;2022-11-13T05:56:05;100157.69;;;6.69;100.00
7157;BME280;3620;49.862;8.758;2022-11-13T05:58:33;100160.75;;;6.37;100.00
7157;BME280;3620;49.862;8.758;2022-11-13T06:01:05;100158.97;;;6.39;100.00
7157;BME280;3620;49.862;8.758;2022-11-13T06:03:32;100141.41;;;6.47;100.00
7157;BME280;3620;49.862;8.758;2022-11-13T06:05:59;100141.97;;;6.70;100.00
7157;BME280;3620;49.862;8.758;2022-11-13T06:08:27;100146.59;;;6.51;100.00
7157;BME280;3620;49.862;8.758;2022-11-13T06:10:58;100146.91;;;6.30;100.00
7157;BME280;3620;49.862;8.758;2022-11-13T06:13:25;100139.75;;;6.43;100.00
7157;BME280;3620;49.862;8.758;2022-11-13T06:15:52;100137.53;;;6.14;100.00
7157;BME280;3620;49.862;8.758;2022-11-13T06:18:22;100148.66;;;6.27;100.00
7157;BME280;3620;49.862;8.758;2022-11-13T06:20:49;100135.53;;;6.33;100.00
7157;BME280;3620;49.862;8.758;2022-11-13T06:23:16;100130.25;;;6.37;100.00
7157;BME280;3620;49.862;8.758;2022-11-13T06:25:44;100133.00;;;6.27;100.00
7157;BME280;3620;49.862;8.758;2022-11-13T06:28:11;100127.97;;;6.12;100.00
7157;BME280;3620;49.862;8.758;2022-11-13T06:30:39;100127.25;;;6.02;100.00
7157;BME280;3620;49.862;8.758;2022-11-13T06:33:09;100129.09;;;5.94;100.00
7157;BME280;3620;49.862;8.758;2022-11-13T06:35:35;100131.72;;;5.93;100.00
7157;BME280;3620;49.862;8.758;2022-11-13T06:38:02;100136.16;;;5.86;100.00
7157;BME280;3620;49.862;8.758;2022-11-13T06:40:29;100130.06;;;5.82;100.00
7157;BME280;3620;49.862;8.758;2022-11-13T06:42:56;100130.84;;;5.92;100.00
7157;BME280;3620;49.862;8.758;2022-11-13T06:45:23;100125.53;;;6.00;100.00
7157;BME280;3620;49.862;8.758;2022-11-13T06:47:50;100128.28;;;5.87;100.00
7157;BME280;3620;49.862;8.758;2022-11-13T06:50:16;100122.81;;;6.07;100.00
7157;BME280;3620;49.862;8.758;2022-11-13T06:52:43;100121.38;;;5.86;100.00
7157;BME280;3620;49.862;8.758;2022-11-13T06:55:09;100125.38;;;6.12;100.00
7157;BME280;3620;49.862;8.758;2022-11-13T06:57:36;100124.50;;;6.13;100.00
7157;BME280;3620;49.862;8.758;2022-11-13T07:00:05;100121.72;;;6.25;100.00
7157;BME280;3620;49.862;8.758;2022-11-13T07:02:32;100126.19;;;6.17;100.00
7157;BME280;3620;49.862;8.758;2022-11-13T07:04:58;100119.69;;;5.76;100.00
7157;BME280;3620;49.862;8.758;2022-11-13T07:07:25;100117.28;;;5.61;100.00
7157;BME280;3620;49.862;8.758;2022-11-13T07:09:51;100115.41;;;5.69;100.00
7157;BME280;3620;49.862;8.758;2022-11-13T07:12:18;100110.91;;;5.83;100.00
7157;BME280;3620;49.862;8.758;2022-11-13T07:14:45;100121.09;;;6.05;100.00
7157;BME280;3620;49.862;8.758;2022-11-13T07:17:13;100108.19;;;5.94;100.00
7157;BME280;3620;49.862;8.758;2022-11-13T07:19:39;100111.44;;;6.13;100.00
7157;BME280;3620;49.862;8.758;2022-11-13T07:22:06;100104.78;;;5.90;100.00
7157;BME280;3620;49.862;8.758;2022-11-13T07:24:32;100103.50;;;6.19;100.00
7157;BME280;3620;49.862;8.758;2022-11-13T07:26:59;100100.66;;;6.37;100.00
7157;BME280;3620;49.862;8.758;2022-11-13T07:29:25;100094.94;;;6.11;100.00
7157;BME280;3620;49.862;8.758;2022-11-13T07:31:52;100102.25;;;5.78;100.00
7157;BME280;3620;49.862;8.758;2022-11-13T07:34:20;100105.78;;;5.77;100.00
7157;BME280;3620;49.862;8.758;2022-11-13T07:36:46;100100.56;;;5.76;100.00
7157;BME280;3620;49.862;8.758;2022-11-13T07:39:13;100101.41;;;5.76;100.00
7157;BME280;3620;49.862;8.758;2022-11-13T07:41:39;100097.19;;;5.68;100.00
7157;BME280;3620;49.862;8.758;2022-11-13T07:44:06;100104.19;;;5.63;100.00
7157;BME280;3620;49.862;8.758;2022-11-13T07:46:33;100097.22;;;5.66;100.00
7157;BME280;3620;49.862;8.758;2022-11-13T07:48:59;100102.22;;;5.84;100.00
7157;BME280;3620;49.862;8.758;2022-11-13T07:51:27;100091.34;;;6.16;100.00
7157;BME280;3620;49.862;8.758;2022-11-13T07:53:54;100095.91;;;6.02;100.00
7157;BME280;3620;49.862;8.758;2022-11-13T07:56:20;100088.88;;;6.09;100.00
7157;BME280;3620;49.862;8.758;2022-11-13T07:58:49;100091.72;;;5.90;100.00
7157;BME280;3620;49.862;8.758;2022-11-13T08:01:16;100093.31;;;6.01;100.00
7157;BME280;3620;49.862;8.758;2022-11-13T08:03:42;100093.06;;;6.19;100.00
7157;BME280;3620;49.862;8.758;2022-11-13T08:06:09;100088.00;;;6.07;100.00
7157;BME280;3620;49.862;8.758;2022-11-13T08:08:37;100091.41;;;6.12;100.00
7157;BME280;3620;49.862;8.758;2022-11-13T08:11:05;100089.00;;;6.00;100.00
7157;BME280;3620;49.862;8.758;2022-11-13T08:13:32;100101.16;;;6.01;100.00
7157;BME280;3620;49.862;8.758;2022-11-13T08:15:59;100093.19;;;6.10;100.00
7157;BME280;3620;49.862;8.758;2022-11-13T08:18:26;100092.00;;;6.32;100.00
7157;BME280;3620;49.862;8.758;2022-11-13T08:20:52;100091.63;;;6.56;100.00
7157;BME280;3620;49.862;8.758;2022-11-13T08:23:19;100090.63;;;6.66;100.00
7157;BME280;3620;49.862;8.758;2022-11-13T08:25:49;100084.19;;;6.85;100.00
7157;BME280;3620;49.862;8.758;2022-11-13T08:28:16;100077.53;;;6.64;100.00
7157;BME280;3620;49.862;8.758;2022-11-13T08:30:43;100078.50;;;6.62;100.00
7157;BME280;3620;49.862;8.758;2022-11-13T08:33:09;100081.78;;;6.73;100.00
7157;BME280;3620;49.862;8.758;2022-11-13T08:35:36;100082.63;;;6.74;100.00
7157;BME280;3620;49.862;8.758;2022-11-13T08:38:03;100074.88;;;6.69;100.00
7157;BME280;3620;49.862;8.758;2022-11-13T08:40:30;100080.97;;;6.70;100.00
7157;BME280;3620;49.862;8.758;2022-11-13T08:42:59;100075.63;;;6.76;100.00
7157;BME280;3620;49.862;8.758;2022-11-13T08:45:26;100077.66;;;7.10;100.00
7157;BME280;3620;49.862;8.758;2022-11-13T08:47:53;100078.59;;;7.06;100.00
7157;BME280;3620;49.862;8.758;2022-11-13T08:50:20;100079.88;;;7.31;100.00
7157;BME280;3620;49.862;8.758;2022-11-13T08:52:46;100082.75;;;7.64;100.00
7157;BME280;3620;49.862;8.758;2022-11-13T08:55:13;100077.19;;;7.34;100.00
7157;BME280;3620;49.862;8.758;2022-11-13T08:57:40;100073.88;;;7.26;100.00
7157;BME280;3620;49.862;8.758;2022-11-13T09:00:09;100077.06;;;7.42;100.00
7157;BME280;3620;49.862;8.758;2022-11-13T09:02:36;100064.06;;;7.37;100.00
7157;BME280;3620;49.862;8.758;2022-11-13T09:05:03;100060.41;;;7.46;100.00
7157;BME280;3620;49.862;8.758;2022-11-13T09:07:30;100059.09;;;7.24;100.00
7157;BME280;3620;49.862;8.758;2022-11-13T09:09:56;100060.59;;;7.35;100.00
7157;BME280;3620;49.862;8.758;2022-11-13T09:12:23;100054.13;;;7.55;100.00
7157;BME280;3620;49.862;8.758;2022-11-13T09:14:49;100046.84;;;7.69;100.00
7157;BME280;3620;49.862;8.758;2022-11-13T09:17:17;100037.06;;;7.77;100.00
7157;BME280;3620;49.862;8.758;2022-11-13T09:19:44;100044.75;;;7.86;100.00
7157;BME280;3620;49.862;8.758;2022-11-13T09:22:11;100049.59;;;8.04;100.00
7157;BME280;3620;49.862;8.758;2022-11-13T09:24:37;100050.41;;;8.04;100.00
7157;BME280;3620;49.862;8.758;2022-11-13T09:27:04;100051.22;;;7.68;100.00
7157;BME280;3620;49.862;8.758;2022-11-13T09:29:30;100043.59;;;7.58;100.00
7157;BME280;3620;49.862;8.758;2022-11-13T09:31:58;100048.75;;;7.61;100.00
7157;BME280;3620;49.862;8.758;2022-11-13T09:34:28;100037.03;;;7.35;100.00
7157;BME280;3620;49.862;8.758;2022-11-13T09:36:54;100033.28;;;7.50;100.00
7157;BME280;3620;49.862;8.758;2022-11-13T09:39:21;100025.63;;;7.81;100.00
7157;BME280;3620;49.862;8.758;2022-11-13T09:41:51;100020.19;;;7.90;100.00
7157;BME280;3620;49.862;8.758;2022-11-13T09:44:29;100014.34;;;8.15;100.00
7157;BME280;3620;49.862;8.758;2022-11-13T09:47:02;100022.88;;;8.25;100.00
7157;BME280;3620;49.862;8.758;2022-11-13T09:49:37;100010.41;;;8.38;100.00
7157;BME280;3620;49.862;8.758;2022-11-13T09:52:11;100019.09;;;8.38;100.00
7157;BME280;3620;49.862;8.758;2022-11-13T09:54:39;100021.97;;;8.28;100.00
7157;BME280;3620;49.862;8.758;2022-11-13T09:57:14;100011.22;;;8.38;100.00
7157;BME280;3620;49.862;8.758;2022-11-13T09:59:49;100011.53;;;8.26;100.00
7157;BME280;3620;49.862;8.758;2022-11-13T10:02:22;100012.00;;;8.05;100.00
7157;BME280;3620;49.862;8.758;2022-11-13T10:04:56;100008.34;;;8.12;100.00
7157;BME280;3620;49.862;8.758;2022-11-13T10:07:33;99992.78;;;8.06;100.00
7157;BME280;3620;49.862;8.758;2022-11-13T10:13:27;99985.78;;;8.43;100.00
7157;BME280;3620;49.862;8.758;2022-11-13T10:16:03;99982.72;;;8.26;100.00
7157;BME280;3620;49.862;8.758;2022-11-13T10:18:34;99975.56;;;8.31;100.00
7157;BME280;3620;49.862;8.758;2022-11-13T10:21:09;99964.00;;;8.73;100.00
7157;BME280;3620;49.862;8.758;2022-11-13T10:23:40;99964.00;;;8.73;100.00
7157;BME280;3620;49.862;8.758;2022-11-13T10:26:14;99964.88;;;8.74;100.00
7157;BME280;3620;49.862;8.758;2022-11-13T10:28:41;99959.84;;;8.99;100.00
7157;BME280;3620;49.862;8.758;2022-11-13T10:31:09;99956.22;;;9.03;100.00
7157;BME280;3620;49.862;8.758;2022-11-13T10:33:36;99942.31;;;8.67;100.00
7157;BME280;3620;49.862;8.758;2022-11-13T10:36:10;99942.44;;;8.64;100.00
7157;BME280;3620;49.862;8.758;2022-11-13T10:38:42;99930.91;;;8.36;100.00
7157;BME280;3620;49.862;8.758;2022-11-13T10:41:12;99923.75;;;8.42;100.00
7157;BME280;3620;49.862;8.758;2022-11-13T10:43:50;99917.91;;;8.31;100.00
7157;BME280;3620;49.862;8.758;2022-11-13T10:46:18;99910.41;;;8.51;100.00
7157;BME280;3620;49.862;8.758;2022-11-13T10:48:45;99908.09;;;8.71;100.00
7157;BME280;3620;49.862;8.758;2022-11-13T10:51:22;99893.44;;;8.32;100.00
7157;BME280;3620;49.862;8.758;2022-11-13T10:53:50;99900.09;;;8.45;100.00
7157;BME280;3620;49.862;8.758;2022-11-13T10:56:22;99885.22;;;8.46;100.00
7157;BME280;3620;49.862;8.758;2022-11-13T10:59:01;99884.94;;;8.56;100.00
7157;BME280;3620;49.862;8.758;2022-11-13T11:01:29;99866.25;;;8.68;100.00
7157;BME280;3620;49.862;8.758;2022-11-13T11:03:56;99872.91;;;8.80;100.00
7157;BME280;3620;49.862;8.758;2022-11-13T11:06:32;99871.00;;;8.87;100.00
7157;BME280;3620;49.862;8.758;2022-11-13T11:09:07;99866.25;;;8.99;100.00
7157;BME280;3620;49.862;8.758;2022-11-13T11:11:40;99860.81;;;8.74;100.00
7157;BME280;3620;49.862;8.758;2022-11-13T11:14:27;99862.44;;;8.78;100.00
7157;BME280;3620;49.862;8.758;2022-11-13T11:16:57;99875.06;;;8.64;100.00
7157;BME280;3620;49.862;8.758;2022-11-13T11:19:28;99876.75;;;8.68;100.00
7157;BME280;3620;49.862;8.758;2022-11-13T11:22:02;99860.34;;;8.91;100.00
7157;BME280;3620;49.862;8.758;2022-11-13T11:24:34;99865.38;;;8.99;100.00
7157;BME280;3620;49.862;8.758;2022-11-13T11:27:05;99858.03;;;8.80;100.00
7157;BME280;3620;49.862;8.758;2022-11-13T11:29:38;99849.88;;;8.90;100.00
7157;BME280;3620;49.862;8.758;2022-11-13T11:32:15;99847.56;;;9.10;100.00
7157;BME280;3620;49.862;8.758;2022-11-13T11:34:48;99845.38;;;9.24;100.00
7157;BME280;3620;49.862;8.758;2022-11-13T11:37:18;99840.03;;;9.27;100.00
7157;BME280;3620;49.862;8.758;2022-11-13T11:39:50;99842.50;;;9.04;100.00
7157;BME280;3620;49.862;8.758;2022-11-13T11:42:23;99837.19;;;9.34;100.00
7157;BME280;3620;49.862;8.758;2022-11-13T11:45:03;99829.78;;;9.18;100.00
7157;BME280;3620;49.862;8.758;2022-11-13T11:47:31;99822.38;;;9.32;100.00
7157;BME280;3620;49.862;8.758;2022-11-13T11:49:59;99821.75;;;9.24;100.00
7157;BME280;3620;49.862;8.758;2022-11-13T11:52:41;99815.41;;;9.31;100.00
7157;BME280;3620;49.862;8.758;2022-11-13T11:55:28;99819.38;;;9.44;100.00
7157;BME280;3620;49.862;8.758;2022-11-13T11:57:58;99808.34;;;9.33;100.00
7157;BME280;3620;49.862;8.758;2022-11-13T12:00:31;99813.88;;;9.24;100.00
7157;BME280;3620;49.862;8.758;2022-11-13T12:06:12;99796.91;;;9.35;100.00
7157;BME280;3620;49.862;8.758;2022-11-13T12:08:47;99804.06;;;9.29;100.00
7157;BME280;3620;49.862;8.758;2022-11-13T12:11:23;99796.88;;;9.63;100.00
7157;BME280;3620;49.862;8.758;2022-11-13T12:14:01;99796.19;;;9.84;100.00
7157;BME280;3620;49.862;8.758;2022-11-13T12:16:35;99785.31;;;9.93;100.00
7157;BME280;3620;49.862;8.758;2022-11-13T12:19:12;99783.78;;;10.14;100.00
7157;BME280;3620;49.862;8.758;2022-11-13T12:21:47;99773.91;;;10.20;100.00
7157;BME280;3620;49.862;8.758;2022-11-13T12:24:35;99772.88;;;10.24;100.00
7157;BME280;3620;49.862;8.758;2022-11-13T12:27:12;99761.22;;;10.31;100.00
7157;BME280;3620;49.862;8.758;2022-11-13T12:29:54;99769.81;;;10.37;100.00
7157;BME280;3620;49.862;8.758;2022-11-13T12:32:38;99773.03;;;10.45;100.00
7157;BME280;3620;49.862;8.758;2022-11-13T12:35:13;99766.75;;;10.49;100.00
7157;BME280;3620;49.862;8.758;2022-11-13T12:37:46;99762.97;;;10.56;100.00
7157;BME280;3620;49.862;8.758;2022-11-13T12:40:21;99752.28;;;10.60;100.00
7157;BME280;3620;49.862;8.758;2022-11-13T12:42:55;99745.84;;;10.69;100.00
7157;BME280;3620;49.862;8.758;2022-11-13T12:45:32;99750.63;;;10.81;100.00
7157;BME280;3620;49.862;8.758;2022-11-13T12:48:07;99737.63;;;10.76;100.00
7157;BME280;3620;49.862;8.758;2022-11-13T12:50:34;99737.63;;;10.76;100.00
7157;BME280;3620;49.862;8.758;2022-11-13T12:53:04;99735.88;;;10.77;100.00
7157;BME280;3620;49.862;8.758;2022-11-13T12:55:34;99729.47;;;10.84;100.00
7157;BME280;3620;49.862;8.758;2022-11-13T12:58:08;99723.84;;;10.93;100.00
7157;BME280;3620;49.862;8.758;2022-11-13T13:00:37;99714.03;;;10.96;100.00
7157;BME280;3620;49.862;8.758;2022-11-13T13:03:20;99708.06;;;10.93;100.00
7157;BME280;3620;49.862;8.758;2022-11-13T13:06:08;99705.97;;;11.01;100.00
7157;BME280;3620;49.862;8.758;2022-11-13T13:08:52;99710.00;;;11.10;100.00
7157;BME280;3620;49.862;8.758;2022-11-13T13:11:30;99690.47;;;11.15;100.00
7157;BME280;3620;49.862;8.758;2022-11-13T13:14:16;99682.06;;;11.27;100.00
7157;BME280;3620;49.862;8.758;2022-11-13T13:16:47;99676.44;;;11.36;100.00
7157;BME280;3620;49.862;8.758;2022-11-13T13:19:24;99675.56;;;11.36;100.00
7157;BME280;3620;49.862;8.758;2022-11-13T13:21:52;99669.91;;;11.45;100.00
7157;BME280;3620;49.862;8.758;2022-11-13T13:24:28;99674.09;;;11.50;100.00
7157;BME280;3620;49.862;8.758;2022-11-13T13:26:57;99666.19;;;11.50;100.00
7157;BME280;3620;49.862;8.758;2022-11-13T13:29:26;99661.69;;;11.52;100.00